createdAt,value
2022-08-05T00:01:25.904Z,18.77
2022-08-05T00:02:19.591Z,18.76
2022-08-05T00:03:24.662Z,18.32
2022-08-05T00:04:29.288Z,18.76
2022-08-05T00:06:05.066Z,18.76
2022-08-05T00:06:39.136Z,18.76
2022-08-05T00:08:00.259Z,18.73
2022-08-05T00:08:50.411Z,18.78
2022-08-05T00:09:57.662Z,18.78
2022-08-05T00:11:05.518Z,18.74
2022-08-05T00:12:13.202Z,18.72
2022-08-05T00:13:18.792Z,18.75
2022-08-05T00:14:22.675Z,18.71
2022-08-05T00:15:54.989Z,18.71
2022-08-05T00:16:36.343Z,18.69
2022-08-05T00:17:41.515Z,18.69
2022-08-05T00:18:48.287Z,18.67
2022-08-05T00:20:02.391Z,18.67
2022-08-05T00:21:03.977Z,18.69
2022-08-05T00:22:11.122Z,18.65
2022-08-05T00:23:14.659Z,18.65
2022-08-05T00:24:24.721Z,18.64
2022-08-05T00:25:25.939Z,18.64
2022-08-05T00:26:29.934Z,18.66
2022-08-05T00:27:36.091Z,18.64
2022-08-05T00:28:40.267Z,18.66
2022-08-05T00:29:44.547Z,18.66
2022-08-05T00:30:52.052Z,18.67
2022-08-05T00:32:13.109Z,18.67
2022-08-05T00:33:04.962Z,18.62
2022-08-05T00:34:54.018Z,18.62
2022-08-05T00:35:18.067Z,18.63
2022-08-05T00:37:11.459Z,18.63
2022-08-05T00:37:51.302Z,18.59
2022-08-05T00:38:38.598Z,18.58
2022-08-05T00:39:58.114Z,18.55
2022-08-05T00:40:54.541Z,18.53
2022-08-05T00:41:58.468Z,18.53
2022-08-05T00:43:07.560Z,18.53
2022-08-05T00:44:09.227Z,18.53
2022-08-05T00:45:13.485Z,18.54
2022-08-05T00:46:18.774Z,18.55
2022-08-05T00:47:24.570Z,18.54
2022-08-05T00:48:31.395Z,18.57
2022-08-05T00:49:44.693Z,18.56
2022-08-05T00:50:44.057Z,18.56
2022-08-05T00:51:51.695Z,18.60
2022-08-05T00:52:55.161Z,18.59
2022-08-05T00:54:02.565Z,18.59
2022-08-05T00:55:05.926Z,18.58
2022-08-05T00:56:10.664Z,18.53
2022-08-05T00:57:16.179Z,18.57
2022-08-05T00:58:21.874Z,18.57
2022-08-05T00:59:43.354Z,18.58
2022-08-05T01:00:34.915Z,18.60
2022-08-05T01:01:48.400Z,18.61
2022-08-05T01:02:45.868Z,18.61
2022-08-05T01:03:49.904Z,18.62
2022-08-05T01:04:54.030Z,18.61
2022-08-05T01:05:58.842Z,18.61
2022-08-05T01:07:05.234Z,18.57
2022-08-05T01:08:41.991Z,18.56
2022-08-05T01:09:14.901Z,18.57
2022-08-05T01:10:25.790Z,18.51
2022-08-05T01:11:36.855Z,18.54
2022-08-05T01:12:40.646Z,18.53
2022-08-05T01:13:58.920Z,18.53
2022-08-05T01:14:57.938Z,18.52
2022-08-05T01:16:05.171Z,18.52
2022-08-05T01:17:31.392Z,18.53
2022-08-05T01:18:40.073Z,18.54
2022-08-05T01:20:01.790Z,18.54
2022-08-05T01:21:13.516Z,18.50
2022-08-05T01:22:47.008Z,18.44
2022-08-05T01:24:14.155Z,18.44
2022-08-05T01:25:24.065Z,18.43
2022-08-05T01:26:50.307Z,18.43
2022-08-05T01:28:19.372Z,18.45
2022-08-05T01:29:29.373Z,18.45
2022-08-05T01:30:37.825Z,18.46
2022-08-05T01:31:47.975Z,18.45
2022-08-05T01:32:53.985Z,18.42
2022-08-05T01:34:11.433Z,18.42
2022-08-05T01:35:50.584Z,18.36
2022-08-05T01:36:33.426Z,18.36
2022-08-05T01:37:50.548Z,18.33
2022-08-05T01:39:01.026Z,18.33
2022-08-05T01:40:05.547Z,18.29
2022-08-05T01:41:11.675Z,18.27
2022-08-05T01:42:25.219Z,18.27
2022-08-05T01:43:27.644Z,18.23
2022-08-05T01:44:35.372Z,18.23
2022-08-05T01:45:42.805Z,18.23
2022-08-05T01:46:46.749Z,18.24
2022-08-05T01:47:56.616Z,18.24
2022-08-05T01:49:24.144Z,18.24
2022-08-05T01:50:17.286Z,18.18
2022-08-05T01:51:22.268Z,18.18
2022-08-05T01:52:28.185Z,18.14
2022-08-05T01:53:57.086Z,18.15
2022-08-05T01:54:48.834Z,18.14
2022-08-05T01:55:57.540Z,18.20
2022-08-05T01:58:09.566Z,18.20
2022-08-05T01:58:15.911Z,18.17
2022-08-05T01:59:22.228Z,18.17
2022-08-05T02:00:29.897Z,18.19
2022-08-05T02:01:39.816Z,18.19
2022-08-05T02:02:54.467Z,18.17
2022-08-05T02:03:58.751Z,18.15
2022-08-05T02:05:05.923Z,18.15
2022-08-05T02:06:37.672Z,18.14
2022-08-05T02:07:23.419Z,18.14
2022-08-05T02:08:30.715Z,18.18
2022-08-05T02:09:35.602Z,18.18
2022-08-05T02:10:42.697Z,18.19
2022-08-05T02:11:52.377Z,18.19
2022-08-05T02:13:02.608Z,18.19
2022-08-05T02:14:17.433Z,18.19
2022-08-05T02:15:37.449Z,18.22
2022-08-05T02:16:46.252Z,18.26
2022-08-05T02:18:30.965Z,18.24
2022-08-05T02:19:11.780Z,18.28
2022-08-05T02:20:23.063Z,18.28
2022-08-05T02:21:46.691Z,18.28
2022-08-05T02:22:49.755Z,18.32
2022-08-05T02:23:56.767Z,18.32
2022-08-05T02:25:21.743Z,18.35
2022-08-05T02:26:34.704Z,18.35
2022-08-05T02:27:58.443Z,18.38
2022-08-05T02:28:55.110Z,18.38
2022-08-05T02:30:00.927Z,18.42
2022-08-05T02:31:21.136Z,18.45
2022-08-05T02:32:29.363Z,18.46
2022-08-05T02:33:38.901Z,18.50
2022-08-05T02:34:54.888Z,18.53
2022-08-05T02:35:57.494Z,18.53
2022-08-05T02:37:00.016Z,18.57
2022-08-05T02:38:09.436Z,18.55
2022-08-05T02:39:14.511Z,18.55
2022-08-05T02:40:21.083Z,18.56
2022-08-05T02:41:42.876Z,18.59
2022-08-05T02:42:37.301Z,18.61
2022-08-05T02:44:02.837Z,18.60
2022-08-05T02:44:50.619Z,18.60
2022-08-05T02:45:56.916Z,18.60
2022-08-05T02:47:05.621Z,18.58
2022-08-05T02:48:12.381Z,18.61
2022-08-05T02:49:18.115Z,18.62
2022-08-05T02:50:26.954Z,18.62
2022-08-05T02:52:02.854Z,18.62
2022-08-05T02:52:40.814Z,18.68
2022-08-05T02:53:47.502Z,18.68
2022-08-05T02:54:54.726Z,18.72
2022-08-05T02:56:02.275Z,18.74
2022-08-05T02:58:11.667Z,18.75
2022-08-05T02:58:20.647Z,18.78
2022-08-05T02:59:27.788Z,18.79
2022-08-05T03:00:33.469Z,18.82
2022-08-05T03:01:40.116Z,18.80
2022-08-05T03:02:48.717Z,18.80
2022-08-05T03:04:02.708Z,18.84
2022-08-05T03:05:02.233Z,18.85
2022-08-05T03:06:56.159Z,18.84
2022-08-05T03:07:59.298Z,18.87
2022-08-05T03:08:29.647Z,18.87
2022-08-05T03:09:37.501Z,18.88
2022-08-05T03:10:37.081Z,18.88
2022-08-05T03:11:57.640Z,18.92
2022-08-05T03:12:51.880Z,18.93
2022-08-05T03:14:03.362Z,18.95
2022-08-05T03:15:03.563Z,18.95
2022-08-05T03:16:15.758Z,18.95
2022-08-05T03:17:15.151Z,18.97
2022-08-05T03:18:19.180Z,19.01
2022-08-05T03:19:34.108Z,19.06
2022-08-05T03:20:33.399Z,19.14
2022-08-05T03:21:41.573Z,19.23
2022-08-05T03:24:13.694Z,19.29
2022-08-05T03:25:32.484Z,19.38
2022-08-05T03:26:31.407Z,19.45
2022-08-05T03:28:31.201Z,19.53
2022-08-05T03:28:53.481Z,15.60
2022-08-05T03:30:08.692Z,19.64
2022-08-05T03:31:09.155Z,19.75
2022-08-05T03:32:17.451Z,19.79
2022-08-05T03:33:25.170Z,19.83
2022-08-05T03:34:30.310Z,19.83
2022-08-05T03:35:41.256Z,19.90
2022-08-05T03:36:40.364Z,19.93
2022-08-05T03:37:46.335Z,19.93
2022-08-05T03:38:53.401Z,19.92
2022-08-05T03:40:01.403Z,19.93
2022-08-05T03:41:08.311Z,19.94
2022-08-05T03:42:13.063Z,19.94
2022-08-05T03:44:08.853Z,19.94
2022-08-05T03:44:24.352Z,19.97
2022-08-05T03:45:28.340Z,19.97
2022-08-05T03:46:33.086Z,19.93
2022-08-05T03:47:41.196Z,19.89
2022-08-05T03:48:45.410Z,19.88
2022-08-05T03:49:52.401Z,19.88
2022-08-05T03:52:38.777Z,19.88
2022-08-05T03:52:48.889Z,19.78
2022-08-05T03:55:34.061Z,19.77
2022-08-05T03:55:52.347Z,19.77
2022-08-05T03:56:10.153Z,19.70
2022-08-05T03:57:02.871Z,19.70
2022-08-05T03:58:12.666Z,19.59
2022-08-05T03:59:46.912Z,19.56
2022-08-05T04:00:42.172Z,19.55
2022-08-05T04:01:50.563Z,19.51
2022-08-05T04:02:59.320Z,19.52
2022-08-05T04:04:09.808Z,19.53
2022-08-05T04:05:14.660Z,19.55
2022-08-05T04:06:20.850Z,19.52
2022-08-05T04:07:26.193Z,19.48
2022-08-05T04:08:37.502Z,19.45
2022-08-05T04:09:38.752Z,19.50
2022-08-05T04:10:46.010Z,19.51
2022-08-05T04:11:56.474Z,19.51
2022-08-05T04:13:03.505Z,19.50
2022-08-05T04:14:10.550Z,19.50
2022-08-05T04:15:24.565Z,19.50
2022-08-05T04:16:32.146Z,19.53
2022-08-05T04:17:55.835Z,19.46
2022-08-05T04:18:41.187Z,19.45
2022-08-05T04:19:54.488Z,19.40
2022-08-05T04:20:58.237Z,19.39
2022-08-05T04:22:09.668Z,19.31
2022-08-05T04:23:12.439Z,19.33
2022-08-05T04:24:19.161Z,19.36
2022-08-05T04:25:38.339Z,19.36
2022-08-05T04:27:19.646Z,19.34
2022-08-05T04:27:58.175Z,19.38
2022-08-05T04:28:52.295Z,19.39
2022-08-05T04:29:56.438Z,19.39
2022-08-05T04:31:14.725Z,19.41
2022-08-05T04:32:30.557Z,19.39
2022-08-05T04:34:17.734Z,19.41
2022-08-05T04:34:50.991Z,19.42
2022-08-05T04:36:15.581Z,19.43
2022-08-05T04:36:51.145Z,19.42
2022-08-05T04:38:02.880Z,19.42
2022-08-05T04:39:01.702Z,19.45
2022-08-05T04:40:07.755Z,19.45
2022-08-05T04:41:12.060Z,19.45
2022-08-05T04:42:25.343Z,19.48
2022-08-05T04:43:27.714Z,19.45
2022-08-05T04:44:31.755Z,19.43
2022-08-05T04:45:48.518Z,19.42
2022-08-05T04:46:43.602Z,19.42
2022-08-05T04:47:55.354Z,19.45
2022-08-05T04:49:04.290Z,19.42
2022-08-05T04:50:11.132Z,19.45
2022-08-05T04:51:15.439Z,19.45
2022-08-05T04:52:19.451Z,19.45
2022-08-05T04:53:33.560Z,19.47
2022-08-05T04:54:33.974Z,19.47
2022-08-05T04:56:34.017Z,19.42
2022-08-05T04:56:58.923Z,19.42
2022-08-05T04:58:02.165Z,19.47
2022-08-05T04:59:24.223Z,19.40
2022-08-05T05:00:12.876Z,19.44
2022-08-05T05:02:08.386Z,19.49
2022-08-05T05:02:41.229Z,19.49
2022-08-05T05:03:41.754Z,19.57
2022-08-05T05:04:43.830Z,19.61
2022-08-05T05:06:40.505Z,19.59
2022-08-05T05:06:52.097Z,19.59
2022-08-05T05:08:01.773Z,19.65
2022-08-05T05:09:05.532Z,19.65
2022-08-05T05:10:14.131Z,19.62
2022-08-05T05:11:19.376Z,19.62
2022-08-05T05:12:30.279Z,19.63
2022-08-05T05:13:43.004Z,19.63
2022-08-05T05:14:50.501Z,19.57
2022-08-05T05:15:57.847Z,19.53
2022-08-05T05:18:09.836Z,19.56
2022-08-05T05:18:52.311Z,19.54
2022-08-05T05:19:19.352Z,19.56
2022-08-05T05:20:23.304Z,19.56
2022-08-05T05:21:29.125Z,19.60
2022-08-05T05:22:40.671Z,19.60
2022-08-05T05:24:03.907Z,19.60
2022-08-05T05:24:59.041Z,19.60
2022-08-05T05:25:54.063Z,19.59
2022-08-05T05:27:01.126Z,19.66
2022-08-05T05:28:05.733Z,19.70
2022-08-05T05:29:17.424Z,19.70
2022-08-05T05:30:31.509Z,19.71
2022-08-05T05:32:37.468Z,19.77
2022-08-05T05:33:59.203Z,19.77
2022-08-05T05:34:47.863Z,19.77
2022-08-05T05:35:53.562Z,19.78
2022-08-05T05:36:57.939Z,19.78
2022-08-05T05:38:02.939Z,19.80
2022-08-05T05:39:09.880Z,19.73
2022-08-05T05:40:17.794Z,19.73
2022-08-05T05:41:22.810Z,19.66
2022-08-05T05:42:27.965Z,19.67
2022-08-05T05:43:58.098Z,19.66
2022-08-05T05:44:44.394Z,19.72
2022-08-05T05:45:48.218Z,19.72
2022-08-05T05:46:51.067Z,19.76
2022-08-05T05:48:06.502Z,19.79
2022-08-05T05:49:22.836Z,19.87
2022-08-05T05:50:19.825Z,19.92
2022-08-05T05:51:24.280Z,19.95
2022-08-05T05:52:33.045Z,19.95
2022-08-05T05:53:54.387Z,19.95
2022-08-05T05:54:50.078Z,20.10
2022-08-05T05:55:52.413Z,20.14
2022-08-05T05:56:53.049Z,20.14
2022-08-05T05:57:58.475Z,20.18
2022-08-05T05:59:06.940Z,20.18
2022-08-05T06:00:18.857Z,20.24
2022-08-05T06:01:23.568Z,20.24
2022-08-05T06:02:37.366Z,20.24
2022-08-05T06:03:54.084Z,20.28
2022-08-05T06:04:42.901Z,20.28
2022-08-05T06:05:54.195Z,20.31
2022-08-05T06:06:55.727Z,20.37
2022-08-05T06:08:07.864Z,20.37
2022-08-05T06:09:17.052Z,20.30
2022-08-05T06:10:15.301Z,20.30
2022-08-05T06:11:19.742Z,20.30
2022-08-05T06:12:23.920Z,20.27
2022-08-05T06:13:32.238Z,20.27
2022-08-05T06:14:40.231Z,20.11
2022-08-05T06:16:27.320Z,20.19
2022-08-05T06:16:48.547Z,20.19
2022-08-05T06:17:54.611Z,20.15
2022-08-05T06:18:59.912Z,20.19
2022-08-05T06:20:06.283Z,20.19
2022-08-05T06:21:16.642Z,20.28
2022-08-05T06:22:27.204Z,20.28
2022-08-05T06:23:43.589Z,20.34
2022-08-05T06:24:48.230Z,20.34
2022-08-05T06:26:13.008Z,20.35
2022-08-05T06:26:58.715Z,20.32
2022-08-05T06:28:12.676Z,20.32
2022-08-05T06:29:42.948Z,20.33
2022-08-05T06:30:21.665Z,20.30
2022-08-05T06:31:38.212Z,20.30
2022-08-05T06:32:44.999Z,20.30
2022-08-05T06:34:07.838Z,20.21
2022-08-05T06:34:53.318Z,20.20
2022-08-05T06:36:07.829Z,20.20
2022-08-05T06:37:06.644Z,20.20
2022-08-05T06:38:12.265Z,20.24
2022-08-05T06:39:18.383Z,20.24
2022-08-05T06:40:32.407Z,20.25
2022-08-05T06:41:37.404Z,20.38
2022-08-05T06:42:44.701Z,20.38
2022-08-05T06:43:51.753Z,20.41
2022-08-05T06:44:58.103Z,20.43
2022-08-05T06:46:06.753Z,20.43
2022-08-05T06:47:10.286Z,20.50
2022-08-05T06:48:50.451Z,20.49
2022-08-05T06:50:00.466Z,20.52
2022-08-05T06:50:35.863Z,20.52
2022-08-05T06:51:45.584Z,20.51
2022-08-05T06:53:03.565Z,20.45
2022-08-05T06:53:58.157Z,20.52
2022-08-05T06:55:02.511Z,20.65
2022-08-05T06:56:06.935Z,20.71
2022-08-05T06:57:57.403Z,20.71
2022-08-05T06:58:34.754Z,20.77
2022-08-05T06:59:27.014Z,20.77
2022-08-05T07:00:31.681Z,20.80
2022-08-05T07:01:40.873Z,20.80
2022-08-05T07:03:09.954Z,20.85
2022-08-05T07:04:14.276Z,20.83
2022-08-05T07:05:18.904Z,20.90
2022-08-05T07:06:25.618Z,20.94
2022-08-05T07:09:58.291Z,20.98
2022-08-05T07:11:02.066Z,20.98
2022-08-05T07:12:06.459Z,20.96
2022-08-05T07:13:10.826Z,20.93
2022-08-05T07:14:20.407Z,21.01
2022-08-05T07:15:34.049Z,21.01
2022-08-05T07:17:56.863Z,21.00
2022-08-05T07:18:01.975Z,21.02
2022-08-05T07:18:52.545Z,21.22
2022-08-05T07:21:04.670Z,21.27
2022-08-05T07:22:12.658Z,21.30
2022-08-05T07:23:26.089Z,21.28
2022-08-05T07:24:19.358Z,21.26
2022-08-05T07:25:55.332Z,21.26
2022-08-05T07:26:35.949Z,21.28
2022-08-05T07:27:57.196Z,21.32
2022-08-05T07:28:50.389Z,21.32
2022-08-05T07:30:27.292Z,21.49
2022-08-05T07:31:02.376Z,21.58
2022-08-05T07:32:09.159Z,21.58
2022-08-05T07:33:16.865Z,21.68
2022-08-05T07:34:21.521Z,21.76
2022-08-05T07:36:03.792Z,21.84
2022-08-05T07:36:34.657Z,21.91
2022-08-05T07:37:45.896Z,21.91
2022-08-05T07:40:32.665Z,21.98
2022-08-05T07:42:12.961Z,21.98
2022-08-05T07:43:52.789Z,22.14
2022-08-05T07:44:58.504Z,22.14
2022-08-05T07:46:05.950Z,22.21
2022-08-05T07:47:11.783Z,22.25
2022-08-05T07:49:00.829Z,22.20
2022-08-05T07:49:25.814Z,22.19
2022-08-05T07:50:32.614Z,22.24
2022-08-05T07:51:40.601Z,22.24
2022-08-05T07:52:44.858Z,22.34
2022-08-05T07:53:53.760Z,22.49
2022-08-05T07:54:58.240Z,22.54
2022-08-05T07:56:06.330Z,22.60
2022-08-05T07:57:22.640Z,22.61
2022-08-05T07:58:17.785Z,22.63
2022-08-05T07:59:21.931Z,22.65
2022-08-05T08:00:28.797Z,22.65
2022-08-05T08:01:33.191Z,22.63
2022-08-05T08:03:14.322Z,22.63
2022-08-05T08:03:45.150Z,22.59
2022-08-05T08:04:49.842Z,22.60
2022-08-05T08:05:54.148Z,22.64
2022-08-05T08:06:58.353Z,22.64
2022-08-05T08:08:04.171Z,22.61
2022-08-05T08:09:25.037Z,22.64
2022-08-05T08:10:22.663Z,22.61
2022-08-05T08:11:27.623Z,22.59
2022-08-05T08:12:49.358Z,22.55
2022-08-05T08:14:00.768Z,22.52
2022-08-05T08:15:14.033Z,22.52
2022-08-05T08:16:35.119Z,22.67
2022-08-05T08:17:19.396Z,22.67
2022-08-05T08:18:25.318Z,22.77
2022-08-05T08:20:22.816Z,22.76
2022-08-05T08:20:44.067Z,22.82
2022-08-05T08:21:45.696Z,22.96
2022-08-05T08:22:54.028Z,23.07
2022-08-05T08:24:04.672Z,23.11
2022-08-05T08:25:27.206Z,23.11
2022-08-05T08:26:27.064Z,23.23
2022-08-05T08:27:44.992Z,23.22
2022-08-05T08:28:59.094Z,23.23
2022-08-05T08:30:05.854Z,23.23
2022-08-05T08:30:49.901Z,23.11
2022-08-05T08:31:54.765Z,23.11
2022-08-05T08:33:02.598Z,23.17
2022-08-05T08:34:06.205Z,23.18
2022-08-05T08:35:13.624Z,23.35
2022-08-05T08:36:38.521Z,23.35
2022-08-05T08:37:28.236Z,23.43
2022-08-05T08:38:35.730Z,23.49
2022-08-05T08:39:38.223Z,23.57
2022-08-05T08:40:51.496Z,23.64
2022-08-05T08:42:02.086Z,23.74
2022-08-05T08:44:54.643Z,23.82
2022-08-05T08:45:22.850Z,23.82
2022-08-05T08:45:26.293Z,24.00
2022-08-05T08:46:25.965Z,24.10
2022-08-05T08:48:07.338Z,24.10
2022-08-05T08:48:42.947Z,24.16
2022-08-05T08:50:06.197Z,23.98
2022-08-05T08:51:22.427Z,23.90
2022-08-05T08:52:15.502Z,23.90
2022-08-05T08:53:22.482Z,23.89
2022-08-05T08:54:30.176Z,23.84
2022-08-05T08:56:02.740Z,23.84
2022-08-05T08:56:47.787Z,23.84
2022-08-05T08:57:58.290Z,23.82
2022-08-05T08:58:57.418Z,23.79
2022-08-05T09:00:05.848Z,23.87
2022-08-05T09:01:16.355Z,23.92
2022-08-05T09:02:19.451Z,24.00
2022-08-05T09:03:40.327Z,23.99
2022-08-05T09:04:58.338Z,24.12
2022-08-05T09:06:07.524Z,24.12
2022-08-05T09:06:55.449Z,24.13
2022-08-05T09:08:01.950Z,24.02
2022-08-05T09:09:07.932Z,23.93
2022-08-05T09:10:15.373Z,23.93
2022-08-05T09:11:51.322Z,23.97
2022-08-05T09:12:27.874Z,23.97
2022-08-05T09:14:00.910Z,23.91
2022-08-05T09:14:56.545Z,23.88
2022-08-05T09:15:47.987Z,23.94
2022-08-05T09:16:52.512Z,23.91
2022-08-05T09:17:56.758Z,23.98
2022-08-05T09:19:00.871Z,24.00
2022-08-05T09:20:11.356Z,24.00
2022-08-05T09:21:20.867Z,23.93
2022-08-05T09:22:31.189Z,23.88
2022-08-05T09:23:37.415Z,23.96
2022-08-05T09:24:37.211Z,23.99
2022-08-05T09:26:02.122Z,23.99
2022-08-05T09:26:58.784Z,23.95
2022-08-05T09:28:21.093Z,23.92
2022-08-05T09:29:30.880Z,23.99
2022-08-05T09:30:29.704Z,24.11
2022-08-05T09:32:40.125Z,24.18
2022-08-05T09:32:51.993Z,24.23
2022-08-05T09:33:54.549Z,24.23
2022-08-05T09:34:58.754Z,24.30
2022-08-05T09:36:11.602Z,24.22
2022-08-05T09:38:12.580Z,24.22
2022-08-05T09:38:31.226Z,24.22
2022-08-05T09:39:41.298Z,24.16
2022-08-05T09:40:52.690Z,24.00
2022-08-05T09:42:05.474Z,24.00
2022-08-05T09:43:40.605Z,24.22
2022-08-05T09:44:51.261Z,24.35
2022-08-05T09:46:06.857Z,24.35
2022-08-05T09:47:16.065Z,24.40
2022-08-05T09:48:32.465Z,24.47
2022-08-05T09:49:40.354Z,24.40
2022-08-05T09:50:44.116Z,24.30
2022-08-05T09:51:48.998Z,24.11
2022-08-05T09:52:55.662Z,24.17
2022-08-05T09:54:01.850Z,24.21
2022-08-05T09:55:58.678Z,24.17
2022-08-05T09:56:30.190Z,24.07
2022-08-05T09:57:43.197Z,24.06
2022-08-05T09:59:05.490Z,24.11
2022-08-05T10:00:25.636Z,24.11
2022-08-05T10:01:31.812Z,24.12
2022-08-05T10:02:38.833Z,24.19
2022-08-05T10:03:58.619Z,24.23
2022-08-05T10:05:09.597Z,24.37
2022-08-05T10:06:18.847Z,24.37
2022-08-05T10:08:10.987Z,24.48
2022-08-05T10:08:38.311Z,24.48
2022-08-05T10:09:46.626Z,24.58
2022-08-05T10:10:55.051Z,24.58
2022-08-05T10:12:30.337Z,24.69
2022-08-05T10:13:45.697Z,24.73
2022-08-05T10:14:37.929Z,24.73
2022-08-05T10:15:43.656Z,24.83
2022-08-05T10:16:52.760Z,24.83
2022-08-05T10:18:14.631Z,24.90
2022-08-05T10:19:23.553Z,24.90
2022-08-05T10:20:31.315Z,24.90
2022-08-05T10:21:40.495Z,24.90
2022-08-05T10:22:42.924Z,24.79
2022-08-05T10:23:55.991Z,24.84
2022-08-05T10:24:55.948Z,24.79
2022-08-05T10:26:02.851Z,24.79
2022-08-05T10:27:09.210Z,24.83
2022-08-05T10:28:19.531Z,24.72
2022-08-05T10:30:06.369Z,24.67
2022-08-05T10:32:48.094Z,24.72
2022-08-05T10:32:51.847Z,24.76
2022-08-05T10:32:53.762Z,24.72
2022-08-05T10:33:54.071Z,24.86
2022-08-05T10:35:00.927Z,22.49
2022-08-05T10:36:04.564Z,22.49
2022-08-05T10:37:09.339Z,25.06
2022-08-05T10:38:15.880Z,25.11
2022-08-05T10:39:25.078Z,25.14
2022-08-05T10:40:48.350Z,25.14
2022-08-05T10:42:18.435Z,25.22
2022-08-05T10:43:47.641Z,25.32
2022-08-05T10:44:56.760Z,25.32
2022-08-05T10:46:06.415Z,25.33
2022-08-05T10:47:26.665Z,25.34
2022-08-05T10:48:39.631Z,25.43
2022-08-05T10:50:32.863Z,25.43
2022-08-05T10:51:21.686Z,25.61
2022-08-05T10:52:19.233Z,25.61
2022-08-05T10:53:42.703Z,25.60
2022-08-05T10:54:56.566Z,25.53
2022-08-05T10:56:21.281Z,25.41
2022-08-05T10:57:18.401Z,25.53
2022-08-05T10:58:22.869Z,25.61
2022-08-05T11:00:04.283Z,25.61
2022-08-05T11:00:42.222Z,25.57
2022-08-05T11:01:55.128Z,25.60
2022-08-05T11:03:23.041Z,25.66
2022-08-05T11:04:15.498Z,25.66
2022-08-05T11:05:20.050Z,25.70
2022-08-05T11:06:30.829Z,25.65
2022-08-05T11:07:33.316Z,25.64
2022-08-05T11:08:37.211Z,25.64
2022-08-05T11:09:47.799Z,25.64
2022-08-05T11:11:01.462Z,25.67
2022-08-05T11:11:59.396Z,25.64
2022-08-05T11:13:06.542Z,25.64
2022-08-05T11:14:12.814Z,25.89
2022-08-05T11:15:21.218Z,25.89
2022-08-05T11:16:47.523Z,25.88
2022-08-05T11:18:00.349Z,25.99
2022-08-05T11:18:47.057Z,25.99
2022-08-05T11:20:17.484Z,26.02
2022-08-05T11:20:56.883Z,26.00
2022-08-05T11:22:04.024Z,26.04
2022-08-05T11:23:33.600Z,26.04
2022-08-05T11:24:32.974Z,25.93
2022-08-05T11:26:05.698Z,25.90
2022-08-05T11:26:49.618Z,25.83
2022-08-05T11:27:51.664Z,25.76
2022-08-05T11:28:56.777Z,25.76
2022-08-05T11:30:01.668Z,25.79
2022-08-05T11:31:11.722Z,25.79
2022-08-05T11:32:29.562Z,25.73
2022-08-05T11:33:46.139Z,25.86
2022-08-05T11:34:51.502Z,25.90
2022-08-05T11:36:07.944Z,25.90
2022-08-05T11:38:28.730Z,25.99
2022-08-05T11:38:30.043Z,26.05
2022-08-05T11:39:55.276Z,26.09
2022-08-05T11:41:12.874Z,26.09
2022-08-05T11:42:08.309Z,26.03
2022-08-05T11:43:21.449Z,25.91
2022-08-05T11:44:40.528Z,25.77
2022-08-05T11:46:27.345Z,25.64
2022-08-05T11:47:10.329Z,25.59
2022-08-05T11:47:59.460Z,25.59
2022-08-05T11:49:06.278Z,25.55
2022-08-05T11:50:14.719Z,25.54
2022-08-05T11:51:44.115Z,25.48
2022-08-05T11:52:31.344Z,25.54
2022-08-05T11:53:40.992Z,25.54
2022-08-05T11:54:48.505Z,25.71
2022-08-05T11:55:59.901Z,25.78
2022-08-05T11:57:08.234Z,25.78
2022-08-05T11:58:12.172Z,26.04
2022-08-05T11:59:21.178Z,26.04
2022-08-05T12:00:32.152Z,26.08
2022-08-05T12:01:44.125Z,26.18
2022-08-05T12:02:47.435Z,26.18
2022-08-05T12:04:06.025Z,26.17
2022-08-05T12:05:08.033Z,26.18
2022-08-05T12:06:12.211Z,26.23
2022-08-05T12:07:18.111Z,26.23
2022-08-05T12:08:23.906Z,26.15
2022-08-05T12:09:53.007Z,26.07
2022-08-05T12:10:45.853Z,26.08
2022-08-05T12:11:50.378Z,25.98
2022-08-05T12:12:59.529Z,25.98
2022-08-05T12:14:05.912Z,25.79
2022-08-05T12:15:20.831Z,25.79
2022-08-05T12:16:38.281Z,25.74
2022-08-05T12:18:02.984Z,25.74
2022-08-05T12:18:52.446Z,25.74
2022-08-05T12:20:25.770Z,25.68
2022-08-05T12:21:15.218Z,25.74
2022-08-05T12:22:25.133Z,25.79
2022-08-05T12:23:31.179Z,25.85
2022-08-05T12:24:49.637Z,25.85
2022-08-05T12:25:57.994Z,25.99
2022-08-05T12:27:09.841Z,26.03
2022-08-05T12:28:08.397Z,26.03
2022-08-05T12:29:22.812Z,25.90
2022-08-05T12:30:29.056Z,25.90
2022-08-05T12:31:42.456Z,25.95
2022-08-05T12:32:50.441Z,26.12
2022-08-05T12:33:55.580Z,26.12
2022-08-05T12:35:01.572Z,26.19
2022-08-05T12:37:21.580Z,26.26
2022-08-05T12:37:48.334Z,26.26
2022-08-05T12:38:31.455Z,26.35
2022-08-05T12:39:38.687Z,26.35
2022-08-05T12:40:44.217Z,26.41
2022-08-05T12:41:48.703Z,26.49
2022-08-05T12:44:11.696Z,26.46
2022-08-05T12:45:19.801Z,26.30
2022-08-05T12:46:15.129Z,26.49
2022-08-05T12:46:32.737Z,26.19
2022-08-05T12:47:37.912Z,26.12
2022-08-05T12:48:45.243Z,26.12
2022-08-05T12:50:03.896Z,26.03
2022-08-05T12:51:21.621Z,26.02
2022-08-05T12:52:25.344Z,25.99
2022-08-05T12:53:37.042Z,25.99
2022-08-05T12:54:39.803Z,25.99
2022-08-05T12:55:45.460Z,26.02
2022-08-05T12:57:02.180Z,26.01
2022-08-05T12:58:49.932Z,26.01
2022-08-05T12:59:46.679Z,26.03
2022-08-05T13:02:03.965Z,26.04
2022-08-05T13:02:16.662Z,26.16
2022-08-05T13:02:56.544Z,26.21
2022-08-05T13:04:09.614Z,26.21
2022-08-05T13:05:15.136Z,25.56
2022-08-05T13:06:19.605Z,25.56
2022-08-05T13:07:59.981Z,26.48
2022-08-05T13:08:35.072Z,26.48
2022-08-05T13:09:57.034Z,26.55
2022-08-05T13:11:01.902Z,26.63
2022-08-05T13:12:16.064Z,26.77
2022-08-05T13:14:06.089Z,26.77
2022-08-05T13:14:36.189Z,26.76
2022-08-05T13:15:42.145Z,26.79
2022-08-05T13:16:49.227Z,26.79
2022-08-05T13:17:56.419Z,26.81
2022-08-05T13:19:02.597Z,26.84
2022-08-05T13:20:09.700Z,26.93
2022-08-05T13:21:18.499Z,26.96
2022-08-05T13:22:29.541Z,26.96
2022-08-05T13:23:31.401Z,27.01
2022-08-05T13:24:51.213Z,27.03
2022-08-05T13:26:03.825Z,27.07
2022-08-05T13:27:17.158Z,27.07
2022-08-05T13:28:20.747Z,27.12
2022-08-05T13:29:37.517Z,27.01
2022-08-05T13:30:37.122Z,27.02
2022-08-05T13:32:04.315Z,27.02
2022-08-05T13:32:50.456Z,27.02
2022-08-05T13:34:24.627Z,27.05
2022-08-05T13:34:57.942Z,27.06
2022-08-05T13:36:02.079Z,27.09
2022-08-05T13:37:08.680Z,27.07
2022-08-05T13:38:28.017Z,27.06
2022-08-05T13:40:14.294Z,27.10
2022-08-05T13:40:53.994Z,27.12
2022-08-05T13:42:00.746Z,27.12
2022-08-05T13:43:12.213Z,27.17
2022-08-05T13:44:15.324Z,27.22
2022-08-05T13:45:21.582Z,27.22
2022-08-05T13:46:50.977Z,27.22
2022-08-05T13:49:00.405Z,27.31
2022-08-05T13:49:59.828Z,27.39
2022-08-05T13:51:26.393Z,27.46
2022-08-05T13:52:29.045Z,27.50
2022-08-05T13:53:31.201Z,27.58
2022-08-05T13:54:16.321Z,27.25
2022-08-05T13:54:35.410Z,27.58
2022-08-05T13:55:41.421Z,27.45
2022-08-05T13:56:50.543Z,27.44
2022-08-05T13:57:53.787Z,27.28
2022-08-05T13:58:59.783Z,27.27
2022-08-05T14:00:08.177Z,27.15
2022-08-05T14:01:17.506Z,27.01
2022-08-05T14:02:21.265Z,26.95
2022-08-05T14:03:32.019Z,26.95
2022-08-05T14:06:37.941Z,26.90
2022-08-05T14:07:25.778Z,26.87
2022-08-05T14:08:36.877Z,26.88
2022-08-05T14:09:30.653Z,26.88
2022-08-05T14:10:35.409Z,26.91
2022-08-05T14:12:04.340Z,26.92
2022-08-05T14:13:04.055Z,26.92
2022-08-05T14:14:12.459Z,26.93
2022-08-05T14:15:06.154Z,26.91
2022-08-05T14:16:11.397Z,26.91
2022-08-05T14:17:17.669Z,26.93
2022-08-05T14:18:23.080Z,27.00
2022-08-05T14:19:28.022Z,27.00
2022-08-05T14:20:32.788Z,27.11
2022-08-05T14:22:09.998Z,27.18
2022-08-05T14:22:50.100Z,27.18
2022-08-05T14:23:48.566Z,27.28
2022-08-05T14:25:18.983Z,27.31
2022-08-05T14:26:02.550Z,27.40
2022-08-05T14:27:18.200Z,27.40
2022-08-05T14:28:22.775Z,27.46
2022-08-05T14:29:24.450Z,27.67
2022-08-05T14:32:03.725Z,27.78
2022-08-05T14:32:49.105Z,27.84
2022-08-05T14:33:59.915Z,27.67
2022-08-05T14:34:00.341Z,27.99
2022-08-05T14:35:03.360Z,28.12
2022-08-05T14:36:07.702Z,28.21
2022-08-05T14:37:16.779Z,28.30
2022-08-05T14:38:31.571Z,28.39
2022-08-05T14:39:29.738Z,28.39
2022-08-05T14:40:35.448Z,28.48
2022-08-05T14:42:02.416Z,28.53
2022-08-05T14:43:02.684Z,28.50
2022-08-05T14:44:02.245Z,28.50
2022-08-05T14:45:07.744Z,28.54
2022-08-05T14:46:08.810Z,28.61
2022-08-05T14:47:12.859Z,28.51
2022-08-05T14:48:33.138Z,28.51
2022-08-05T14:49:22.612Z,28.56